Bexley, United Kingdom
Current Conditions -  °F | °C
As of 1:50 AM on Sunday 21 Dec 2014 (Local Time) from EGLC Reporting Station
Few Clouds Few Clouds  
Wind Chill: 36°   Ceiling: Unl
Heat Index: 43°   Visibility: 6mi
Dew Point: 37°   Wind: 13mph
Humidity: 81%   Direction: 250°WSW
Pressure: 30.45"   Gusts: NA
Location:  51.44°N, 0.15°E
Report Text: EGLC 210150Z AUTO 25011KT 9999 FEW040/// 06/03 Q1031
Loading
Personal Weather Stations






























Interactive Weather Map New forecast layout! Learn more

10-Day Weather Forecast

Advertisements
Track Severe Weather on mobile